Allentown, PA

03:52 EDT dnia 03-lipiec-2015 (GMT -0400)
South Filmore Street | | Change Station
CLOSE
Current Station
Stacja PWS
Location: Allentown, PA
n.p.m.: 341 ft
Najbliższa stacja pogodowa

Wysokość 341 ft 40.59 °N, 75.45 °W | Updated 14 minutes ago

Clear
pogodnie
61.0 ° F
Odczuwalna 61.0 ° F
Płn.
0.0
Wiatr zmienny Wiatr od WsPnWs

Dziś
Wysoka -- | Niska -- ° F
--% Prawdop. opadów
Wczoraj
Wysoka -- | Niska -- ° F
Precip. -- cali
5:35 AM 8:36 PM
Pełnia Księżyca, 98% visible
Ciśnienie 29.95 cali
Widzialność 10.0 mil
chmury pogodnie
Punkt rosy 61 ° F
Wilgotność 99%
Opady deszczu 0.00 cali
grubość pokrywy śnieżnej Niedostępne.
UV 0 z 12
Pyłki 4.00 z 12
Jakość powietrza Niedostępne.
Flu Activity Niedostępne.
METAR KXLL 030735Z AUTO 02003KT 10SM CLR 17/16 A2995 RMK AO2

More Conditions Fewer Conditions

Ciśnienie 29.95 cali
Widzialność 10.0 mil
chmury pogodnie
Punkt rosy 61 ° F
Wilgotność 99%
Opady deszczu 0.00 cali
grubość pokrywy śnieżnej Niedostępne.
UV 0 z 12
Pyłki 4.00 z 12
Jakość powietrza Niedostępne.
Flu Activity Niedostępne.
METAR KXLL 030735Z AUTO 02003KT 10SM CLR 17/16 A2995 RMK AO2

More Conditions Fewer Conditions

10-Day Weather Forecast

×

Almanac

Astronomia

Jul. 03, 2015 Wschód Zachów
Aktualny czas
Zmierzch cywilny
Zmierzch żeglarski
świt/zmierzch astronomiczny
Księżyc
całkowite oświetlenie
Długość dnia
Tomorrow will be .
, % of the Moon is Illuminated

Dzisiejsze ekstrema

State Highs State Lows

Community

WunderPhotos

Upload Photos

1,834,634 zdjęcia zostały przesłane!

WunderBlogs® & News

Nearby

Jakość powietrza

  Jakość powietrza czynnik AQ Zanieczyszczenie
Not available.

Głębokość pokrywy śnieżnej

Station Depth n.p.m.

Aktywność sejsmiczna

Miejscowość Distance Mag. Time & Date
Minimum magnitude displayed is 2.5.

Temperatury wody na wybrzeżu

Miejsce Temperatura

Stations

Najbliższa stacja pogodowa

Lokalizacja stacji Temp. czynnik chłodzący wiatru Punkt rosy Wilgotność Wiatr Precip. Wysokość Uaktualniono Typ